createdAt,value
2018-12-21T00:01:19.663Z,100190.41
2018-12-21T00:03:54.692Z,100197.95
2018-12-21T00:06:24.201Z,100199.80
2018-12-21T00:08:53.775Z,100200.36
2018-12-21T00:11:23.321Z,100201.22
2018-12-21T00:13:52.832Z,100210.37
2018-12-21T00:16:22.383Z,100214.66
2018-12-21T00:18:51.863Z,100201.30
2018-12-21T00:21:21.933Z,100205.98
2018-12-21T00:23:51.841Z,100194.44
2018-12-21T00:26:21.500Z,100195.22
2018-12-21T00:28:50.993Z,100191.17
2018-12-21T00:31:25.764Z,100191.00
2018-12-21T00:34:00.381Z,100189.99
2018-12-21T00:36:35.072Z,100188.49
2018-12-21T00:39:12.235Z,100192.80
2018-12-21T00:41:40.897Z,100196.22
2018-12-21T00:44:15.330Z,100182.13
2018-12-21T00:46:46.921Z,100186.84
2018-12-21T00:49:16.412Z,100184.99
2018-12-21T00:51:46.140Z,100194.80
2018-12-21T00:54:15.946Z,100201.95
2018-12-21T00:56:45.428Z,100200.81
2018-12-21T00:59:15.179Z,100202.75
2018-12-21T01:01:44.872Z,100197.27
2018-12-21T01:04:14.454Z,100202.63
2018-12-21T01:06:43.929Z,100200.94
2018-12-21T01:09:13.568Z,100201.84
2018-12-21T01:11:43.092Z,100207.14
2018-12-21T01:14:12.582Z,100210.13
2018-12-21T01:16:42.352Z,100217.83
2018-12-21T01:19:13.901Z,100215.54
2018-12-21T01:21:44.843Z,100205.02
2018-12-21T01:24:14.993Z,100197.48
2018-12-21T01:26:45.984Z,100203.37
2018-12-21T01:29:16.707Z,100206.99
2018-12-21T01:31:46.827Z,100195.45
2018-12-21T01:34:17.948Z,100195.89
2018-12-21T01:36:48.057Z,100201.47
2018-12-21T01:39:18.989Z,100213.37
2018-12-21T01:41:49.726Z,100174.78
2018-12-21T01:44:20.538Z,100202.20
2018-12-21T01:46:51.036Z,100194.20
2018-12-21T01:49:22.107Z,100187.48
2018-12-21T01:51:52.698Z,100194.09
2018-12-21T01:54:23.124Z,100197.66
2018-12-21T01:56:54.180Z,100193.58
2018-12-21T01:59:24.777Z,100198.91
2018-12-21T02:01:58.093Z,100188.39
2018-12-21T02:04:29.500Z,100185.17
2018-12-21T02:06:59.208Z,100176.84
2018-12-21T02:09:31.326Z,100155.58
2018-12-21T02:12:02.190Z,100173.58
2018-12-21T02:14:32.314Z,100168.91
2018-12-21T02:17:03.309Z,100169.89
2018-12-21T02:19:34.257Z,100166.91
2018-12-21T02:22:04.389Z,100158.39
2018-12-21T02:24:35.255Z,100149.70
2018-12-21T02:27:05.448Z,100168.00
2018-12-21T02:29:36.290Z,100159.52
2018-12-21T02:32:06.370Z,100144.32
2018-12-21T02:34:37.435Z,100157.28
2018-12-21T02:37:07.026Z,100150.84
2018-12-21T02:39:41.226Z,100138.55
2018-12-21T02:42:15.224Z,100144.16
2018-12-21T02:44:45.409Z,100142.63
2018-12-21T02:47:16.464Z,100148.44
2018-12-21T02:49:48.279Z,100150.78
2018-12-21T02:52:20.312Z,100157.62
2018-12-21T02:54:51.349Z,100161.55
2018-12-21T02:57:22.422Z,100159.78
2018-12-21T02:59:53.496Z,100162.12
2018-12-21T03:02:23.323Z,100145.22
2018-12-21T03:04:55.186Z,100133.47
2018-12-21T03:07:27.409Z,100134.26
2018-12-21T03:09:58.684Z,100136.84
2018-12-21T03:12:29.184Z,100134.38
2018-12-21T03:14:58.933Z,100141.56
2018-12-21T03:17:30.616Z,100134.73
2018-12-21T03:20:01.789Z,100123.70
2018-12-21T03:22:32.498Z,100128.61
2018-12-21T03:25:02.496Z,100121.89
2018-12-21T03:27:33.517Z,100120.56
2018-12-21T03:30:04.123Z,100110.39
2018-12-21T03:32:34.247Z,100121.41
2018-12-21T03:35:05.329Z,100115.75
2018-12-21T03:37:35.551Z,100117.99
2018-12-21T03:40:05.788Z,100124.15
2018-12-21T03:42:37.022Z,100113.52
2018-12-21T03:45:07.274Z,100111.79
2018-12-21T03:47:40.492Z,100106.06
2018-12-21T03:50:11.688Z,100107.38
2018-12-21T03:52:41.610Z,100109.87
2018-12-21T03:55:13.979Z,100100.69
2018-12-21T03:57:48.622Z,100100.91
2018-12-21T04:00:19.747Z,100105.70
2018-12-21T04:02:50.699Z,100101.59
2018-12-21T04:05:21.561Z,100107.98
2018-12-21T04:07:51.636Z,100117.16
2018-12-21T04:10:28.180Z,100120.66
2018-12-21T04:12:58.537Z,100126.31
2018-12-21T04:15:29.688Z,100129.05
2018-12-21T04:17:59.571Z,100126.98
2018-12-21T04:20:30.766Z,100132.30
2018-12-21T04:23:02.392Z,100130.31
2018-12-21T04:25:32.712Z,100126.15
2018-12-21T04:28:02.826Z,100130.31
2018-12-21T04:30:34.580Z,100129.67
2018-12-21T04:33:05.519Z,100134.52
2018-12-21T04:35:35.881Z,100131.22
2018-12-21T04:38:06.083Z,100134.81
2018-12-21T04:40:36.834Z,100130.62
2018-12-21T04:43:07.854Z,100121.80
2018-12-21T04:45:38.032Z,100122.94
2018-12-21T04:48:09.370Z,100114.77
2018-12-21T04:50:38.921Z,100106.77
2018-12-21T04:53:08.828Z,100105.39
2018-12-21T04:55:41.352Z,100105.86
2018-12-21T04:58:11.291Z,100107.23
2018-12-21T05:00:41.971Z,100114.94
2018-12-21T05:03:12.009Z,100120.59
2018-12-21T05:05:43.027Z,100123.84
2018-12-21T05:08:13.987Z,100123.84
2018-12-21T05:10:44.584Z,100118.83
2018-12-21T05:13:14.846Z,100110.85
2018-12-21T05:15:45.850Z,100123.30
2018-12-21T05:18:16.912Z,100121.53
2018-12-21T05:20:47.011Z,100119.02
2018-12-21T05:23:17.965Z,100113.77
2018-12-21T05:25:49.059Z,100114.23
2018-12-21T05:28:19.951Z,100111.30
2018-12-21T05:30:50.747Z,100124.84
2018-12-21T05:33:20.983Z,100115.77
2018-12-21T05:35:57.865Z,100122.95
2018-12-21T05:38:29.115Z,100112.75
2018-12-21T05:40:59.135Z,100103.20
2018-12-21T05:43:30.063Z,100103.17
2018-12-21T05:45:59.728Z,100096.81
2018-12-21T05:48:32.119Z,100100.58
2018-12-21T05:51:03.292Z,100100.14
2018-12-21T05:53:33.294Z,100095.79
2018-12-21T05:56:04.241Z,100089.11
2018-12-21T05:58:36.080Z,100102.46
2018-12-21T06:03:45.168Z,100096.45
2018-12-21T06:06:15.181Z,100097.20
2018-12-21T06:08:51.936Z,100085.66
2018-12-21T06:11:22.239Z,100074.82
2018-12-21T06:14:01.072Z,100082.48
2018-12-21T06:16:32.947Z,100080.08
2018-12-21T06:19:07.065Z,100078.08
2018-12-21T06:21:37.644Z,100074.98
2018-12-21T06:24:10.648Z,100076.94
2018-12-21T06:26:46.124Z,100082.70
2018-12-21T06:29:16.301Z,100083.14
2018-12-21T06:31:46.387Z,100080.27
2018-12-21T06:34:17.264Z,100085.41
2018-12-21T06:36:48.266Z,100081.63
2018-12-21T06:39:19.391Z,100079.86
2018-12-21T06:44:39.409Z,100069.39
2018-12-21T06:47:11.416Z,100073.98
2018-12-21T06:49:42.419Z,100077.87
2018-12-21T06:52:15.958Z,100075.95
2018-12-21T06:54:48.337Z,100076.23
2018-12-21T06:57:21.320Z,100076.07
2018-12-21T06:59:52.120Z,100076.74
2018-12-21T07:02:29.625Z,100069.02
2018-12-21T07:05:00.860Z,100071.29
2018-12-21T07:07:33.134Z,100071.53
2018-12-21T07:10:03.202Z,100073.30
2018-12-21T07:12:33.784Z,100074.27
2018-12-21T07:15:04.887Z,100062.88
2018-12-21T07:17:35.327Z,100067.52
2018-12-21T07:20:06.243Z,100062.14
2018-12-21T07:22:36.744Z,100057.51
2018-12-21T07:25:08.685Z,100055.53
2018-12-21T07:27:38.245Z,100056.98
2018-12-21T07:30:11.237Z,100049.91
2018-12-21T07:32:48.434Z,100051.67
2018-12-21T07:35:19.902Z,100045.78
2018-12-21T07:37:50.708Z,100047.12
2018-12-21T07:40:21.854Z,100052.69
2018-12-21T07:42:52.850Z,100042.46
2018-12-21T07:47:59.313Z,100029.14
2018-12-21T07:50:29.940Z,100025.77
2018-12-21T07:52:59.700Z,100020.73
2018-12-21T07:55:30.967Z,100021.78
2018-12-21T07:58:01.927Z,100018.02
2018-12-21T08:00:31.975Z,100009.17
2018-12-21T08:03:03.170Z,100013.16
2018-12-21T08:05:33.713Z,100010.79
2018-12-21T08:08:04.347Z,100013.84
2018-12-21T08:10:35.001Z,100014.41
2018-12-21T08:13:05.626Z,100011.28
2018-12-21T08:15:36.692Z,100001.69
2018-12-21T08:18:07.155Z,100002.80
2018-12-21T08:20:38.109Z,99998.34
2018-12-21T08:23:08.632Z,99998.77
2018-12-21T08:25:39.818Z,99990.03
2018-12-21T08:28:10.330Z,99992.58
2018-12-21T08:30:40.821Z,99984.08
2018-12-21T08:33:11.769Z,99979.25
2018-12-21T08:35:41.745Z,99984.78
2018-12-21T08:38:12.460Z,99988.78
2018-12-21T08:40:52.792Z,99993.22
2018-12-21T08:43:31.001Z,99988.88
2018-12-21T08:46:00.871Z,99987.55
2018-12-21T08:48:31.026Z,99986.06
2018-12-21T08:53:36.092Z,99981.56
2018-12-21T08:56:06.840Z,99985.53
2018-12-21T08:58:39.905Z,99976.63
2018-12-21T09:01:10.104Z,99962.59
2018-12-21T09:03:41.811Z,99959.84
2018-12-21T09:06:18.425Z,99964.09
2018-12-21T09:08:47.953Z,99956.71
2018-12-21T09:11:18.142Z,99953.48
2018-12-21T09:13:49.076Z,99949.49
2018-12-21T09:16:19.977Z,99950.84
2018-12-21T09:18:50.737Z,99943.52
2018-12-21T09:21:24.280Z,99955.31
2018-12-21T09:24:01.135Z,99949.27
2018-12-21T09:26:28.048Z,99936.67
2018-12-21T09:28:59.331Z,99939.75
2018-12-21T09:31:30.722Z,99936.28
2018-12-21T09:34:00.219Z,99924.98
2018-12-21T09:36:31.260Z,99923.09
2018-12-21T09:39:03.638Z,99906.32
2018-12-21T09:41:33.220Z,99908.05
2018-12-21T09:44:04.355Z,99905.41
2018-12-21T09:46:34.239Z,99897.83
2018-12-21T09:49:05.215Z,99896.73
2018-12-21T09:51:36.294Z,99887.67
2018-12-21T09:54:10.047Z,99891.59
2018-12-21T09:56:41.032Z,99890.50
2018-12-21T09:59:11.332Z,99888.13
2018-12-21T10:01:42.998Z,99883.98
2018-12-21T10:04:15.245Z,99879.66
2018-12-21T10:06:47.253Z,99880.12
2018-12-21T10:09:19.201Z,99876.50
2018-12-21T10:11:50.180Z,99874.98
2018-12-21T10:14:21.173Z,99874.00
2018-12-21T10:16:51.412Z,99859.86
2018-12-21T10:19:22.604Z,99856.59
2018-12-21T10:21:52.253Z,99849.02
2018-12-21T10:24:23.430Z,99845.19
2018-12-21T10:26:53.409Z,99830.23
2018-12-21T10:29:24.621Z,99839.58
2018-12-21T10:31:54.326Z,99830.61
2018-12-21T10:34:25.497Z,99807.67
2018-12-21T10:36:56.552Z,99804.56
2018-12-21T10:39:26.469Z,99807.75
2018-12-21T10:41:57.442Z,99808.02
2018-12-21T10:44:28.431Z,99799.98
2018-12-21T10:46:58.373Z,99795.32
2018-12-21T10:49:32.070Z,99793.43
2018-12-21T10:52:03.286Z,99775.11
2018-12-21T10:54:33.746Z,99781.19
2018-12-21T10:57:05.119Z,99780.90
2018-12-21T10:59:43.210Z,99786.84
2018-12-21T11:02:08.994Z,99779.59
2018-12-21T11:04:39.368Z,99775.53
2018-12-21T11:07:10.468Z,99775.52
2018-12-21T11:09:40.512Z,99764.97
2018-12-21T11:12:12.871Z,99766.88
2018-12-21T11:14:44.791Z,99757.03
2018-12-21T11:17:15.814Z,99742.63
2018-12-21T11:19:45.561Z,99739.86
2018-12-21T11:22:16.737Z,99733.80
2018-12-21T11:24:46.703Z,99731.28
2018-12-21T11:27:17.872Z,99716.39
2018-12-21T11:29:49.572Z,99706.17
2018-12-21T11:32:21.504Z,99704.45
2018-12-21T11:34:51.703Z,99699.81
2018-12-21T11:37:22.781Z,99690.70
2018-12-21T11:39:53.801Z,99684.90
2018-12-21T11:42:23.571Z,99686.17
2018-12-21T11:44:55.900Z,99679.66
2018-12-21T11:47:28.047Z,99678.26
2018-12-21T11:50:02.061Z,99669.25
2018-12-21T11:52:32.398Z,99674.86
2018-12-21T11:55:02.832Z,99663.53
2018-12-21T11:57:34.560Z,99654.33
2018-12-21T12:00:04.896Z,99647.92
2018-12-21T12:02:35.496Z,99646.37
2018-12-21T12:05:07.271Z,99645.91
2018-12-21T12:07:36.829Z,99641.32
2018-12-21T12:10:08.278Z,99651.30
2018-12-21T12:12:39.337Z,99656.41
2018-12-21T12:15:09.563Z,99639.26
2018-12-21T12:17:39.975Z,99636.56
2018-12-21T12:20:10.655Z,99626.45
2018-12-21T12:22:41.200Z,99612.97
2018-12-21T12:25:14.687Z,99610.79
2018-12-21T12:27:44.975Z,99611.45
2018-12-21T12:30:15.946Z,99601.11
2018-12-21T12:32:46.418Z,99582.77
2018-12-21T12:35:16.800Z,99578.98
2018-12-21T12:37:48.006Z,99573.81
2018-12-21T12:40:17.837Z,99570.48
2018-12-21T12:42:49.061Z,99569.63
2018-12-21T12:45:18.972Z,99573.02
2018-12-21T12:47:50.091Z,99564.77
2018-12-21T12:50:21.046Z,99561.16
2018-12-21T12:52:51.035Z,99553.18
2018-12-21T12:55:23.476Z,99545.56
2018-12-21T12:57:57.455Z,99552.31
2018-12-21T13:00:31.232Z,99536.77
2018-12-21T13:03:08.590Z,99533.44
2018-12-21T13:05:40.490Z,99532.98
2018-12-21T13:08:14.456Z,99524.89
2018-12-21T13:10:46.876Z,99514.68
2018-12-21T13:13:20.035Z,99515.94
2018-12-21T13:15:53.335Z,99510.10
2018-12-21T13:18:29.948Z,99518.70
2018-12-21T13:20:59.928Z,99526.17
2018-12-21T13:23:33.082Z,99527.23
2018-12-21T13:26:03.879Z,99525.53
2018-12-21T13:28:34.215Z,99522.09
2018-12-21T13:31:06.105Z,99527.46
2018-12-21T13:33:36.081Z,99510.67
2018-12-21T13:36:06.757Z,99511.88
2018-12-21T13:38:36.911Z,99498.41
2018-12-21T13:41:07.128Z,99496.79
2018-12-21T13:43:38.056Z,99486.64
2018-12-21T13:46:08.060Z,99476.20
2018-12-21T13:48:39.285Z,99486.52
2018-12-21T13:51:09.323Z,99511.76
2018-12-21T13:53:40.144Z,99512.45
2018-12-21T13:56:09.591Z,99504.41
2018-12-21T13:58:41.335Z,99495.45
2018-12-21T14:01:12.188Z,99475.85
2018-12-21T14:03:46.046Z,99461.23
2018-12-21T14:06:16.345Z,99454.36
2018-12-21T14:08:47.144Z,99454.14
2018-12-21T14:11:18.075Z,99461.06
2018-12-21T14:13:48.256Z,99462.72
2018-12-21T14:16:19.223Z,99443.05
2018-12-21T14:18:51.125Z,99447.70
2018-12-21T14:21:21.343Z,99455.78
2018-12-21T14:23:51.263Z,99460.25
2018-12-21T14:26:23.336Z,99462.11
2018-12-21T14:29:05.828Z,99461.59
2018-12-21T14:31:40.510Z,99445.88
2018-12-21T14:34:14.197Z,99454.28
2018-12-21T14:36:44.275Z,99442.77
2018-12-21T14:39:14.520Z,99435.60
2018-12-21T14:41:48.348Z,99436.19
2018-12-21T14:44:18.124Z,99439.78
2018-12-21T14:46:48.932Z,99435.53
2018-12-21T14:49:25.293Z,99450.27
2018-12-21T14:51:55.280Z,99439.77
2018-12-21T14:54:26.327Z,99437.73
2018-12-21T14:56:57.384Z,99433.42
2018-12-21T14:59:27.447Z,99438.41
2018-12-21T15:01:58.481Z,99442.58
2018-12-21T15:04:29.484Z,99456.03
2018-12-21T15:06:59.807Z,99445.42
2018-12-21T15:09:30.628Z,99465.66
2018-12-21T15:12:00.220Z,99441.92
2018-12-21T15:14:29.832Z,99472.62
2018-12-21T15:16:59.711Z,99422.80
2018-12-21T15:19:30.627Z,99395.50
2018-12-21T15:22:00.380Z,99434.03
2018-12-21T15:24:31.592Z,99430.63
2018-12-21T15:27:03.566Z,99356.19
2018-12-21T15:29:34.767Z,99379.03
2018-12-21T15:32:07.523Z,99382.83
2018-12-21T15:34:37.629Z,99428.23
2018-12-21T15:37:09.379Z,99402.70
2018-12-21T15:39:40.594Z,99387.46
2018-12-21T15:42:13.630Z,99345.77
2018-12-21T15:44:43.765Z,99384.43
2018-12-21T15:47:14.586Z,99377.38
2018-12-21T15:49:44.693Z,99380.30
2018-12-21T15:52:17.471Z,99361.41
2018-12-21T15:54:47.553Z,99377.90
2018-12-21T15:57:19.844Z,99355.72
2018-12-21T15:59:49.669Z,99368.34
2018-12-21T16:02:20.700Z,99367.19
2018-12-21T16:04:52.635Z,99353.20
2018-12-21T16:07:24.719Z,99338.95
2018-12-21T16:09:55.664Z,99310.77
2018-12-21T16:12:26.615Z,99337.23
2018-12-21T16:14:56.894Z,99300.67
2018-12-21T16:17:27.771Z,99320.52
2018-12-21T16:19:57.626Z,99345.72
2018-12-21T16:22:27.820Z,99320.21
2018-12-21T16:24:59.696Z,99310.13
2018-12-21T16:27:30.535Z,99316.48
2018-12-21T16:30:00.048Z,99329.84
2018-12-21T16:32:31.918Z,99306.30
2018-12-21T16:35:02.774Z,99316.77
2018-12-21T16:37:34.739Z,99332.37
2018-12-21T16:40:05.438Z,99281.53
2018-12-21T16:42:35.295Z,99398.71
2018-12-21T16:45:08.228Z,99360.60
2018-12-21T16:47:40.200Z,99278.91
2018-12-21T16:50:13.379Z,99297.36
2018-12-21T16:52:43.958Z,99357.80
2018-12-21T16:55:15.041Z,99304.86
2018-12-21T16:57:47.450Z,99268.83
2018-12-21T17:00:23.964Z,99296.61
2018-12-21T17:02:57.422Z,99297.13
2018-12-21T17:05:32.322Z,99237.10
2018-12-21T17:08:04.052Z,99279.11
2018-12-21T17:10:36.362Z,99291.02
2018-12-21T17:13:07.171Z,99271.30
2018-12-21T17:15:36.985Z,99261.21
2018-12-21T17:18:09.297Z,99303.11
2018-12-21T17:20:40.979Z,99279.47
2018-12-21T17:23:11.926Z,99286.23
2018-12-21T17:25:42.114Z,99287.38
2018-12-21T17:28:14.004Z,99273.12
2018-12-21T17:30:44.176Z,99272.70
2018-12-21T17:33:14.296Z,99250.53
2018-12-21T17:35:45.268Z,99242.97
2018-12-21T17:38:16.281Z,99255.47
2018-12-21T17:40:47.344Z,99268.52
2018-12-21T17:43:17.198Z,99273.56
2018-12-21T17:45:48.921Z,99257.64
2018-12-21T17:48:19.168Z,99248.35
2018-12-21T17:50:49.230Z,99289.09
2018-12-21T17:53:20.124Z,99244.11
2018-12-21T17:55:51.207Z,99236.91
2018-12-21T17:58:22.191Z,99262.27
2018-12-21T18:00:52.619Z,99252.18
2018-12-21T18:04:11.032Z,99227.80
2018-12-21T18:06:41.183Z,99235.73
2018-12-21T18:09:12.135Z,99251.22
2018-12-21T18:11:42.240Z,99229.88
2018-12-21T18:14:13.270Z,99232.35
2018-12-21T18:16:43.823Z,99207.17
2018-12-21T18:19:14.504Z,99229.56
2018-12-21T18:21:49.949Z,99218.56
2018-12-21T18:24:20.897Z,99216.41
2018-12-21T18:26:55.071Z,99208.84
2018-12-21T18:29:25.836Z,99208.03
2018-12-21T18:32:04.224Z,99223.25
2018-12-21T18:34:37.890Z,99211.05
2018-12-21T18:37:10.407Z,99212.41
2018-12-21T18:39:41.840Z,99213.75
2018-12-21T18:42:11.421Z,99206.09
2018-12-21T18:44:41.877Z,99210.24
2018-12-21T18:47:12.450Z,99219.03
2018-12-21T18:49:44.265Z,99215.28
2018-12-21T18:52:16.372Z,99222.31
2018-12-21T18:54:47.450Z,99216.45
2018-12-21T18:57:20.147Z,99202.63
2018-12-21T19:02:25.585Z,99212.89
2018-12-21T19:04:59.907Z,99211.22
2018-12-21T19:07:36.698Z,99202.72
2018-12-21T19:10:14.028Z,99198.88
2018-12-21T19:12:51.537Z,99190.92
2018-12-21T19:15:25.803Z,99196.54
2018-12-21T19:18:01.861Z,99202.36
2018-12-21T19:20:31.724Z,99198.16
2018-12-21T19:23:01.748Z,99207.44
2018-12-21T19:25:31.784Z,99187.58
2018-12-21T19:28:03.371Z,99184.70
2018-12-21T19:30:33.617Z,99199.88
2018-12-21T19:33:03.698Z,99180.09
2018-12-21T19:35:40.473Z,99178.02
2018-12-21T19:38:17.433Z,99165.41
2018-12-21T19:40:49.660Z,99170.41
2018-12-21T19:43:28.181Z,99165.48
2018-12-21T19:45:57.109Z,99175.54
2018-12-21T19:48:28.682Z,99145.59
2018-12-21T19:51:00.118Z,99154.34
2018-12-21T19:53:30.778Z,99133.34
2018-12-21T19:56:07.158Z,99150.83
2018-12-21T19:58:38.387Z,99115.08
2018-12-21T20:01:16.084Z,99117.59
2018-12-21T20:03:45.661Z,99115.11
2018-12-21T20:06:20.649Z,99128.87
2018-12-21T20:08:50.788Z,99096.86
2018-12-21T20:11:21.911Z,99128.06
2018-12-21T20:13:51.872Z,99098.64
2018-12-21T20:16:23.006Z,99092.18
2018-12-21T20:18:53.630Z,99112.31
2018-12-21T20:21:28.040Z,99073.63
2018-12-21T20:24:00.661Z,99118.07
2018-12-21T20:26:35.890Z,99104.13
2018-12-21T20:29:09.503Z,99094.31
2018-12-21T20:31:47.136Z,99087.11
2018-12-21T20:34:18.077Z,99100.93
2018-12-21T20:36:47.876Z,99090.45
2018-12-21T20:39:26.518Z,99092.06
2018-12-21T20:41:56.438Z,99088.69
2018-12-21T20:44:25.978Z,99084.10
2018-12-21T20:46:58.133Z,99091.61
2018-12-21T20:49:27.994Z,99084.55
2018-12-21T20:52:00.044Z,99069.89
2018-12-21T20:54:29.965Z,99097.56
2018-12-21T20:57:01.774Z,99086.89
2018-12-21T20:59:34.009Z,99081.34
2018-12-21T21:02:04.968Z,99064.11
2018-12-21T21:04:35.144Z,99091.47
2018-12-21T21:07:07.850Z,99074.28
2018-12-21T21:09:40.046Z,99070.45
2018-12-21T21:12:11.350Z,99071.27
2018-12-21T21:14:41.084Z,99083.77
2018-12-21T21:17:12.366Z,99082.66
2018-12-21T21:19:43.027Z,99093.27
2018-12-21T21:22:13.236Z,99096.20
2018-12-21T21:24:44.064Z,99104.61
2018-12-21T21:27:14.158Z,99099.98
2018-12-21T21:29:45.018Z,99115.84
2018-12-21T21:32:15.267Z,99112.88
2018-12-21T21:34:46.154Z,99121.64
2018-12-21T21:37:17.143Z,99113.98
2018-12-21T21:39:47.091Z,99115.61
2018-12-21T21:42:18.144Z,99124.02
2018-12-21T21:44:48.340Z,99126.13
2018-12-21T21:47:19.119Z,99127.23
2018-12-21T21:49:50.249Z,99145.27
2018-12-21T21:52:21.525Z,99134.01
2018-12-21T21:54:51.298Z,99136.89
2018-12-21T21:57:23.393Z,99131.41
2018-12-21T21:59:55.235Z,99121.00
2018-12-21T22:02:26.676Z,99122.34
2018-12-21T22:04:57.339Z,99110.60
2018-12-21T22:07:28.428Z,99105.72
2018-12-21T22:09:59.042Z,99102.88
2018-12-21T22:12:29.336Z,99101.25
2018-12-21T22:15:00.508Z,99091.53
2018-12-21T22:17:31.220Z,99087.70
2018-12-21T22:20:00.712Z,99091.45
2018-12-21T22:22:32.531Z,99097.75
2018-12-21T22:25:04.545Z,99100.02
2018-12-21T22:27:36.440Z,99105.59
2018-12-21T22:30:08.935Z,99103.59
2018-12-21T22:32:38.408Z,99105.41
2018-12-21T22:35:10.869Z,99115.36
2018-12-21T22:37:50.557Z,99106.12
2018-12-21T22:40:21.508Z,99097.28
2018-12-21T22:42:52.536Z,99100.22
2018-12-21T22:45:22.543Z,99089.61
2018-12-21T22:47:53.503Z,99100.97
2018-12-21T22:50:23.574Z,99100.18
2018-12-21T22:52:54.493Z,99096.87
2018-12-21T22:55:25.504Z,99098.98
2018-12-21T22:57:56.635Z,99097.75
2018-12-21T23:00:34.424Z,99101.54
2018-12-21T23:03:06.549Z,99091.44
2018-12-21T23:05:36.890Z,99088.53
2018-12-21T23:08:07.613Z,99090.27
2018-12-21T23:10:41.319Z,99084.51
2018-12-21T23:13:18.388Z,99073.59
2018-12-21T23:15:48.891Z,99078.30
2018-12-21T23:18:19.592Z,99082.52
2018-12-21T23:20:50.600Z,99088.89
2018-12-21T23:23:21.661Z,99090.95
2018-12-21T23:25:52.676Z,99091.25
2018-12-21T23:28:23.380Z,99083.62
2018-12-21T23:30:53.647Z,99076.88
2018-12-21T23:33:24.428Z,99062.20
2018-12-21T23:35:54.635Z,99063.44
2018-12-21T23:38:25.682Z,99071.87
2018-12-21T23:40:55.696Z,99071.63
2018-12-21T23:43:26.724Z,99078.28
2018-12-21T23:45:57.360Z,99085.45
2018-12-21T23:48:27.644Z,99076.46
2018-12-21T23:50:58.428Z,99085.63
2018-12-21T23:53:28.661Z,99082.16
2018-12-21T23:55:59.730Z,99076.20
2018-12-21T23:58:29.786Z,99077.49
